Time;durP1;ratioP1;P1;durP2;ratioP2;P2;SDS_P1;SDS_P2;PMS_P1;PMS_P2;Temp;Humidity;BMP_temperature;BMP_pressure;BME280_temperature;BME280_humidity;BME280_pressure;Samples;Min_cycle;Max_cycle;Signal;HPM_P1;HPM_P2
2023/05/06 00:00:53;;;;;;;17.60;14.15;;;;;;;13.43;89.37;101368.44;3610367;39;20058;-67
2023/05/06 00:03:18;;;;;;;16.00;14.40;;;;;;;13.34;89.02;101354.66;3607371;39;20282;-68
2023/05/06 00:05:45;;;;;;;21.33;18.27;;;;;;;13.35;89.30;101359.09;3606894;39;20297;-67
2023/05/06 00:08:11;;;;;;;19.60;16.35;;;;;;;13.33;89.82;101361.03;3608042;39;20385;-68
2023/05/06 00:10:36;;;;;;;22.55;20.15;;;;;;;13.33;89.81;101363.75;3608492;39;20108;-68
2023/05/06 00:13:03;;;;;;;19.67;17.58;;;;;;;13.31;89.77;101360.25;3609527;39;20090;-68
2023/05/06 00:15:29;;;;;;;17.55;15.60;;;;;;;13.27;89.15;101362.28;3609181;39;20377;-68
2023/05/06 00:17:55;;;;;;;17.60;15.05;;;;;;;13.24;89.22;101365.16;3610043;39;20069;-68
2023/05/06 00:20:21;;;;;;;20.40;15.48;;;;;;;13.18;89.11;101360.16;3606718;39;20512;-68
2023/05/06 00:22:47;;;;;;;15.73;14.02;;;;;;;13.13;88.29;101359.56;3609288;39;20274;-67
2023/05/06 00:25:12;;;;;;;16.05;14.35;;;;;;;12.86;87.93;101322.59;3605308;39;20069;-68
2023/05/06 00:27:38;;;;;;;16.02;13.77;;;;;;;13.02;88.39;101355.72;3610367;39;20054;-67
2023/05/06 00:30:05;;;;;;;18.35;15.00;;;;;;;12.98;87.74;101359.59;3606480;39;20402;-68
2023/05/06 00:32:30;;;;;;;16.70;14.23;;;;;;;12.93;88.48;101360.84;3612670;39;20080;-67
2023/05/06 00:34:56;;;;;;;23.27;19.83;;;;;;;12.91;88.40;101357.41;3609179;39;20066;-67
2023/05/06 00:37:22;;;;;;;18.23;16.20;;;;;;;12.86;88.63;101352.28;3610689;39;20062;-67
2023/05/06 00:39:47;;;;;;;16.98;14.85;;;;;;;12.83;88.63;101360.56;3610164;39;20065;-67
2023/05/06 00:42:13;;;;;;;19.73;16.55;;;;;;;12.81;89.83;101357.06;3611138;39;20075;-67
2023/05/06 00:44:39;;;;;;;21.42;17.60;;;;;;;12.79;89.37;101353.63;3608425;39;20054;-68
2023/05/06 00:47:07;;;;;;;17.30;15.50;;;;;;;12.75;89.16;101347.56;3608915;39;20074;-67
2023/05/06 00:49:33;;;;;;;17.42;15.63;;;;;;;12.65;89.06;101340.13;3609250;39;20121;-67
2023/05/06 00:52:00;;;;;;;16.23;13.75;;;;;;;12.72;88.84;101355.84;3608791;39;20739;-67
2023/05/06 00:54:26;;;;;;;16.38;14.50;;;;;;;12.70;88.42;101349.66;3597573;39;20062;-67
2023/05/06 00:56:52;;;;;;;16.70;14.95;;;;;;;12.68;88.91;101348.03;3610181;39;20050;-67
2023/05/06 00:59:18;;;;;;;16.98;14.90;;;;;;;12.65;89.27;101346.38;3609135;39;20061;-67
2023/05/06 01:01:46;;;;;;;16.80;15.00;;;;;;;12.64;89.09;101350.03;3610839;39;20050;-67
2023/05/06 01:04:11;;;;;;;16.90;15.05;;;;;;;12.62;89.17;101341.16;3611579;39;20687;-67
2023/05/06 01:06:55;;;;;;;16.38;14.68;;;;;;;12.60;89.30;101336.84;3608652;39;20050;-67
2023/05/06 01:09:40;;;;;;;16.20;14.55;;;;;;;12.51;89.13;101328.38;3606357;39;20059;-67
2023/05/06 01:12:20;;;;;;;17.13;15.32;;;;;;;12.52;89.60;101337.31;3609483;39;20056;-67
2023/05/06 01:15:08;;;;;;;16.55;14.65;;;;;;;12.49;88.56;101337.50;3607099;39;20397;-67
2023/05/06 01:17:42;;;;;;;16.38;14.52;;;;;;;12.46;89.22;101330.50;3608809;39;20057;-66
2023/05/06 01:20:11;;;;;;;15.48;13.75;;;;;;;12.45;88.99;101339.53;3610289;39;20618;-67
2023/05/06 01:22:38;;;;;;;16.63;14.88;;;;;;;12.42;89.10;101341.53;3612429;39;20053;-67
2023/05/06 01:25:05;;;;;;;16.85;14.05;;;;;;;12.40;88.90;101336.25;3609017;39;20071;-68
2023/05/06 01:27:31;;;;;;;16.10;14.02;;;;;;;12.21;88.34;101309.56;3606820;39;20062;-67
2023/05/06 01:29:58;;;;;;;19.90;15.07;;;;;;;12.34;88.35;101335.75;3606280;39;20070;-67
2023/05/06 01:32:42;;;;;;;17.02;14.70;;;;;;;12.32;88.93;101339.41;3608762;39;20085;-67
2023/05/06 01:35:54;;;;;;;16.67;14.18;;;;;;;12.29;89.68;101328.81;3610525;39;20048;-67
2023/05/06 01:39:07;;;;;;;16.42;14.23;;;;;;;12.28;90.30;101337.88;3609209;39;20372;-67
2023/05/06 01:41:37;;;;;;;18.58;14.75;;;;;;;12.26;89.98;101331.69;3609361;39;20849;-66
2023/05/06 01:44:07;;;;;;;19.08;15.05;;;;;;;12.26;90.23;101333.53;3608562;39;20055;-66
2023/05/06 01:46:34;;;;;;;17.77;14.25;;;;;;;12.20;90.04;101333.91;3610041;39;20047;-66
2023/05/06 01:49:10;;;;;;;18.23;15.18;;;;;;;12.19;90.07;101338.44;3608050;39;20107;-66
2023/05/06 01:51:36;;;;;;;16.63;14.30;;;;;;;12.19;89.94;101341.13;3609669;39;20059;-66
2023/05/06 01:54:03;;;;;;;17.38;15.48;;;;;;;12.18;90.54;101346.59;3610655;39;20139;-66
2023/05/06 01:56:29;;;;;;;19.42;14.55;;;;;;;12.16;89.84;101349.41;3611896;39;20058;-66
2023/05/06 01:58:58;;;;;;;17.58;15.52;;;;;;;12.15;90.46;101350.34;3598688;39;20309;-66
2023/05/06 02:01:24;;;;;;;16.88;14.25;;;;;;;12.10;89.86;101349.75;3610482;39;20451;-65
2023/05/06 02:03:49;;;;;;;16.65;14.23;;;;;;;12.12;90.23;101347.00;3609216;39;20084;-66
2023/05/06 02:06:15;;;;;;;15.80;13.90;;;;;;;12.11;89.67;101359.56;3608095;39;20436;-66
2023/05/06 02:08:41;;;;;;;14.80;13.30;;;;;;;12.03;90.09;101335.78;3609727;39;20063;-66
2023/05/06 02:11:07;;;;;;;16.67;14.13;;;;;;;12.08;90.41;101347.16;3610389;39;20054;-65
2023/05/06 02:13:33;;;;;;;16.80;13.38;;;;;;;12.08;89.82;101351.66;3610802;39;20055;-65
2023/05/06 02:15:58;;;;;;;17.00;14.15;;;;;;;11.97;89.33;101343.38;3611863;39;20071;-66
2023/05/06 02:18:24;;;;;;;15.70;13.55;;;;;;;12.03;88.91;101360.03;3606552;39;20370;-66
2023/05/06 02:20:50;;;;;;;13.70;12.30;;;;;;;12.02;88.09;101360.13;3607031;39;20058;-66
2023/05/06 02:23:16;;;;;;;13.50;12.10;;;;;;;11.99;88.09;101360.31;3608924;39;20124;-66
2023/05/06 02:25:42;;;;;;;14.50;12.48;;;;;;;11.96;88.43;101368.59;3608835;39;20051;-65
2023/05/06 02:28:07;;;;;;;13.88;12.32;;;;;;;11.93;87.94;101364.25;3606050;39;20124;-66
2023/05/06 02:30:34;;;;;;;16.02;12.57;;;;;;;11.92;88.42;101362.47;3608878;39;20127;-66
2023/05/06 02:32:59;;;;;;;13.82;12.30;;;;;;;11.85;88.21;101361.97;3608991;39;20679;-66
2023/05/06 02:35:25;;;;;;;15.73;13.15;;;;;;;11.87;88.30;101363.75;3612000;39;20050;-65
2023/05/06 02:37:51;;;;;;;16.20;12.75;;;;;;;11.84;88.06;101364.75;3609540;39;20054;-66
2023/05/06 02:40:16;;;;;;;13.68;11.93;;;;;;;11.82;88.68;101359.44;3596778;39;20059;-67
2023/05/06 02:42:42;;;;;;;14.73;12.77;;;;;;;11.82;88.88;101355.88;3606813;39;20054;-66
2023/05/06 02:45:08;;;;;;;14.40;12.90;;;;;;;11.78;88.16;101365.09;3609187;39;20047;-66
2023/05/06 02:47:34;;;;;;;13.52;12.10;;;;;;;11.49;88.53;101310.25;3610392;39;20063;-66
2023/05/06 02:50:00;;;;;;;14.25;12.77;;;;;;;11.75;88.31;101357.19;3610711;39;20070;-67
2023/05/06 02:52:25;;;;;;;13.63;12.23;;;;;;;11.74;88.11;101352.78;3612242;39;20360;-66
2023/05/06 02:54:51;;;;;;;13.85;12.45;;;;;;;11.70;88.76;101352.06;3607194;39;20055;-66
2023/05/06 02:57:17;;;;;;;14.18;12.68;;;;;;;11.69;88.32;101350.34;3604631;39;20058;-66
2023/05/06 02:59:42;;;;;;;15.30;12.02;;;;;;;11.67;88.46;101354.97;3607400;39;20441;-66
2023/05/06 03:02:08;;;;;;;13.68;12.25;;;;;;;11.43;88.60;101315.97;3608801;39;20051;-66
2023/05/06 03:04:34;;;;;;;12.98;11.63;;;;;;;11.63;88.00;101361.47;3611927;39;20276;-66
2023/05/06 03:06:59;;;;;;;13.73;11.75;;;;;;;11.61;88.21;101352.63;3606923;39;20063;-66
2023/05/06 03:09:25;;;;;;;14.73;12.20;;;;;;;11.58;87.87;101352.81;3609543;39;20055;-66
2023/05/06 03:11:50;;;;;;;13.55;12.15;;;;;;;11.55;87.85;101359.22;3596904;39;20043;-67
2023/05/06 03:14:16;;;;;;;13.82;11.70;;;;;;;11.53;87.43;101350.34;3605381;39;20113;-66
2023/05/06 03:16:41;;;;;;;12.68;11.32;;;;;;;11.51;88.30;101346.00;3606734;39;20397;-66
2023/05/06 03:19:07;;;;;;;13.13;11.50;;;;;;;11.49;87.54;101348.81;3608509;39;20062;-66
2023/05/06 03:21:33;;;;;;;12.80;11.00;;;;;;;11.47;87.92;101349.84;3611490;39;20057;-67
2023/05/06 03:23:58;;;;;;;12.43;11.13;;;;;;;11.45;87.06;101347.25;3611041;39;20054;-66
2023/05/06 03:26:24;;;;;;;14.38;10.68;;;;;;;11.42;87.53;101343.84;3606488;39;20086;-67
2023/05/06 03:28:50;;;;;;;12.25;10.93;;;;;;;11.29;87.73;101320.34;3606140;39;20054;-67
2023/05/06 03:31:15;;;;;;;14.43;11.13;;;;;;;11.41;88.15;101342.97;3605955;39;20055;-66
2023/05/06 03:33:41;;;;;;;14.40;11.70;;;;;;;11.39;87.81;101340.38;3607781;39;20124;-67
2023/05/06 03:36:07;;;;;;;13.45;11.10;;;;;;;11.37;87.97;101334.22;3608955;39;20091;-67
2023/05/06 03:38:32;;;;;;;12.07;10.88;;;;;;;11.23;88.33;101307.22;3610913;39;20054;-67
2023/05/06 03:40:58;;;;;;;12.10;10.77;;;;;;;11.37;88.04;101339.59;3611115;39;20118;-67
2023/05/06 03:43:24;;;;;;;12.23;10.93;;;;;;;11.38;88.98;101330.59;3608240;39;20380;-68
2023/05/06 03:45:49;;;;;;;13.27;10.88;;;;;;;11.35;88.35;101330.75;3605901;39;20057;-68
2023/05/06 03:48:15;;;;;;;12.98;10.63;;;;;;;11.24;88.29;101313.47;3607666;39;20124;-68
2023/05/06 03:50:41;;;;;;;12.43;11.05;;;;;;;11.34;88.77;101337.06;3609826;39;20047;-68
2023/05/06 03:53:07;;;;;;;14.40;10.68;;;;;;;11.33;88.52;101343.44;3608574;39;20051;-68
2023/05/06 03:55:32;;;;;;;13.63;10.90;;;;;;;11.33;88.37;101348.81;3611531;39;20046;-68
2023/05/06 03:57:59;;;;;;;11.38;10.27;;;;;;;11.31;88.33;101350.72;3608058;39;20103;-68
2023/05/06 04:00:25;;;;;;;13.30;10.27;;;;;;;11.29;87.74;101340.97;3604555;39;20111;-69
2023/05/06 04:02:50;;;;;;;11.27;10.18;;;;;;;11.28;88.60;101337.41;3607883;39;20290;-68
2023/05/06 04:05:16;;;;;;;13.15;10.77;;;;;;;11.25;88.60;101337.59;3607778;39;20085;-69
2023/05/06 04:07:42;;;;;;;12.40;10.70;;;;;;;11.25;88.87;101334.03;3608836;39;20370;-68
2023/05/06 04:10:08;;;;;;;12.85;10.32;;;;;;;11.26;89.05;101343.84;3611166;39;20051;-68
2023/05/06 04:12:34;;;;;;;12.05;10.80;;;;;;;11.19;88.31;101339.75;3613924;39;21619;-69
2023/05/06 04:14:59;;;;;;;11.10;9.60;;;;;;;11.26;88.81;101355.50;3599304;39;20047;-68
2023/05/06 04:17:25;;;;;;;13.43;10.07;;;;;;;11.19;88.84;101335.25;3610771;39;20423;-68
2023/05/06 04:19:52;;;;;;;14.05;10.50;;;;;;;11.27;89.34;101351.84;3608532;39;20329;-68
2023/05/06 04:22:18;;;;;;;14.60;10.75;;;;;;;11.25;89.48;101340.28;3613663;39;20047;-68
2023/05/06 04:24:44;;;;;;;12.20;10.30;;;;;;;11.24;89.56;101327.78;3610109;39;20089;-68
2023/05/06 04:27:10;;;;;;;11.55;10.25;;;;;;;11.12;89.49;101321.28;3610728;39;20059;-69
2023/05/06 04:29:37;;;;;;;11.82;10.30;;;;;;;11.34;89.14;101350.53;3600212;39;20061;-68
2023/05/06 04:32:03;;;;;;;11.18;10.02;;;;;;;11.37;89.54;101355.75;3609470;39;20054;-69
2023/05/06 04:34:29;;;;;;;12.75;9.48;;;;;;;11.39;90.22;101352.97;3610863;39;20046;-68
2023/05/06 04:36:57;;;;;;;10.98;9.68;;;;;;;11.05;90.11;101284.06;3607440;39;20293;-68
2023/05/06 04:39:23;;;;;;;15.07;10.63;;;;;;;11.52;89.86;101358.53;3607664;39;20055;-69
2023/05/06 04:41:49;;;;;;;13.27;10.63;;;;;;;11.55;89.51;101361.06;3608760;39;20055;-69
2023/05/06 04:44:15;;;;;;;11.80;10.05;;;;;;;11.58;89.59;101358.19;3608511;39;20058;-69
2023/05/06 04:46:41;;;;;;;11.13;9.43;;;;;;;11.62;89.20;101359.72;3611390;39;20057;-68
2023/05/06 04:49:07;;;;;;;10.57;9.50;;;;;;;11.65;88.85;101359.56;3607441;39;20058;-68
2023/05/06 04:51:32;;;;;;;11.75;9.70;;;;;;;11.66;89.59;101363.97;3608686;39;20055;-68
2023/05/06 04:53:58;;;;;;;11.95;9.82;;;;;;;11.69;89.64;101369.19;3608319;39;20059;-69
2023/05/06 04:56:23;;;;;;;12.07;10.07;;;;;;;11.72;89.77;101370.84;3606994;39;20085;-70
2023/05/06 04:58:49;;;;;;;11.98;9.15;;;;;;;11.74;89.51;101369.81;3607639;39;20059;-68
2023/05/06 05:01:15;;;;;;;13.48;9.82;;;;;;;11.79;89.66;101373.06;3607940;39;20051;-68
2023/05/06 05:03:40;;;;;;;11.82;9.60;;;;;;;11.76;90.07;101367.88;3609987;39;20289;-68
2023/05/06 05:06:06;;;;;;;11.85;9.70;;;;;;;11.88;88.96;101381.63;3609332;39;20318;-68
2023/05/06 05:08:32;;;;;;;13.82;9.75;;;;;;;11.91;90.08;101376.94;3609329;39;20343;-68
2023/05/06 05:10:57;;;;;;;11.73;10.00;;;;;;;11.98;89.65;101382.81;3609982;39;20071;-68
2023/05/06 05:13:23;;;;;;;13.38;9.73;;;;;;;12.04;89.41;101390.53;3608028;39;20055;-70
2023/05/06 05:15:48;;;;;;;11.82;9.25;;;;;;;12.07;89.97;101383.13;3605937;39;20055;-68
2023/05/06 05:18:14;;;;;;;12.75;9.70;;;;;;;12.13;89.32;101384.59;3606804;39;20047;-69
2023/05/06 05:20:40;;;;;;;11.95;9.10;;;;;;;12.17;89.81;101396.06;3608392;39;20051;-68
2023/05/06 05:23:05;;;;;;;15.48;9.27;;;;;;;12.23;89.18;101393.88;3609114;39;20058;-69
2023/05/06 05:25:31;;;;;;;11.70;9.40;;;;;;;12.29;89.65;101393.50;3603939;39;20055;-69
2023/05/06 05:27:56;;;;;;;12.95;9.15;;;;;;;12.35;89.02;101394.13;3605273;39;20073;-67
2023/05/06 05:30:22;;;;;;;12.15;8.88;;;;;;;12.40;89.11;101395.59;3608960;39;20061;-70
2023/05/06 05:32:48;;;;;;;10.52;8.25;;;;;;;12.49;88.49;101405.78;3607954;39;20043;-68
2023/05/06 05:35:13;;;;;;;11.90;8.68;;;;;;;12.52;88.26;101407.44;3608856;39;20062;-68
2023/05/06 05:37:39;;;;;;;13.38;8.95;;;;;;;12.46;88.23;101394.31;3607368;39;20055;-68
2023/05/06 05:40:05;;;;;;;11.95;8.85;;;;;;;12.58;87.66;101407.06;3607617;39;20285;-68
2023/05/06 05:42:32;;;;;;;12.23;8.65;;;;;;;12.62;87.93;101416.69;3606756;39;20043;-67
2023/05/06 05:44:59;;;;;;;13.65;8.35;;;;;;;12.66;88.39;101417.41;3609850;39;20046;-67
2023/05/06 05:47:25;;;;;;;11.63;8.20;;;;;;;12.44;88.12;101372.00;3608049;39;20077;-68
2023/05/06 05:49:50;;;;;;;12.63;8.48;;;;;;;12.78;88.68;101409.41;3607893;39;20050;-68
2023/05/06 05:52:16;;;;;;;12.57;8.48;;;;;;;12.86;88.49;101408.94;3607614;39;20115;-68
2023/05/06 05:54:42;;;;;;;9.48;7.80;;;;;;;12.91;87.47;101411.38;3608247;39;20330;-68
2023/05/06 05:57:07;;;;;;;8.35;7.53;;;;;;;12.98;87.44;101413.56;3607244;39;20067;-67
2023/05/06 05:59:33;;;;;;;9.80;7.43;;;;;;;13.04;87.12;101412.31;3609017;39;20301;-67
2023/05/06 06:01:59;;;;;;;13.02;7.72;;;;;;;13.11;87.36;101413.66;3608067;39;20051;-68
2023/05/06 06:04:24;;;;;;;11.38;7.65;;;;;;;13.15;86.95;101407.09;3610706;39;20413;-68
2023/05/06 06:06:50;;;;;;;12.35;8.10;;;;;;;13.21;87.06;101412.13;3610803;39;20050;-68
2023/05/06 06:09:16;;;;;;;10.90;7.43;;;;;;;13.30;86.23;101415.22;3610810;39;20091;-68
2023/05/06 06:11:41;;;;;;;11.38;8.02;;;;;;;13.39;86.44;101409.25;3609574;39;20075;-68
2023/05/06 06:14:07;;;;;;;9.73;6.95;;;;;;;13.49;86.13;101412.22;3595685;39;20071;-69
2023/05/06 06:16:33;;;;;;;8.52;6.97;;;;;;;13.58;85.45;101406.22;3608022;39;20070;-69
2023/05/06 06:18:59;;;;;;;10.90;7.25;;;;;;;13.70;85.48;101413.50;3610706;39;20055;-69
2023/05/06 06:21:24;;;;;;;10.32;7.22;;;;;;;13.79;84.91;101404.78;3609355;39;20079;-70
2023/05/06 06:23:50;;;;;;;8.38;6.57;;;;;;;13.83;83.74;101403.66;3609016;39;20296;-69
2023/05/06 06:26:15;;;;;;;10.00;6.68;;;;;;;13.93;84.02;101409.31;3610501;39;20290;-67
2023/05/06 06:28:43;;;;;;;8.48;6.53;;;;;;;14.03;83.77;101417.66;3610807;39;20063;-68
2023/05/06 06:31:09;;;;;;;10.13;6.80;;;;;;;14.10;82.67;101413.56;3597934;39;20066;-68
2023/05/06 06:33:34;;;;;;;9.63;6.47;;;;;;;14.10;82.63;101402.75;3608924;39;20116;-68
2023/05/06 06:36:00;;;;;;;7.13;5.95;;;;;;;14.30;82.89;101415.81;3610410;39;20050;-68
2023/05/06 06:38:26;;;;;;;9.52;5.88;;;;;;;14.38;81.61;101416.13;3609791;39;20055;-68
2023/05/06 06:40:52;;;;;;;9.02;6.28;;;;;;;14.46;82.18;101418.34;3610051;39;20462;-69
2023/05/06 06:43:18;;;;;;;7.50;6.10;;;;;;;14.62;81.60;101429.00;3610016;39;20073;-69
2023/05/06 06:45:47;;;;;;;9.02;6.28;;;;;;;14.74;80.43;101422.69;3607729;39;20087;-68
2023/05/06 06:48:13;;;;;;;8.73;5.57;;;;;;;14.88;79.81;101424.47;3608934;39;20055;-69
2023/05/06 06:50:38;;;;;;;8.75;5.90;;;;;;;15.08;80.61;101421.19;3612384;39;20062;-68
2023/05/06 06:53:04;;;;;;;8.70;5.60;;;;;;;15.31;78.75;101424.94;3610389;39;20062;-69
2023/05/06 06:55:29;;;;;;;8.38;5.65;;;;;;;15.50;77.55;101424.47;3609277;39;20047;-68
2023/05/06 06:57:55;;;;;;;8.25;5.45;;;;;;;15.68;77.68;101426.88;3609155;39;20064;-68
2023/05/06 07:00:21;;;;;;;7.60;5.80;;;;;;;15.75;76.84;101412.75;3607956;39;20062;-68
2023/05/06 07:02:47;;;;;;;7.65;5.38;;;;;;;15.91;76.86;101409.75;3608551;39;20067;-68
2023/05/06 07:05:13;;;;;;;8.40;5.63;;;;;;;16.17;76.64;101425.91;3609347;39;20054;-68
2023/05/06 07:07:38;;;;;;;9.18;5.63;;;;;;;16.29;76.50;101411.41;3609545;39;20096;-68
2023/05/06 07:10:05;;;;;;;9.35;6.38;;;;;;;16.55;76.28;101427.53;3612339;39;20120;-68
2023/05/06 07:12:31;;;;;;;9.15;5.45;;;;;;;16.51;73.75;101410.63;3609870;39;20111;-68
2023/05/06 07:14:57;;;;;;;8.20;5.90;;;;;;;16.78;73.42;101439.34;3609030;39;20056;-68
2023/05/06 07:17:22;;;;;;;7.03;5.65;;;;;;;16.92;72.86;101437.28;3606879;39;20067;-68
2023/05/06 07:19:48;;;;;;;10.25;5.72;;;;;;;17.07;71.57;101440.63;3610204;39;20067;-68
2023/05/06 07:22:13;;;;;;;10.50;5.93;;;;;;;16.99;72.29;101406.91;3609366;39;20043;-69
2023/05/06 07:24:39;;;;;;;9.43;6.63;;;;;;;17.26;70.87;101440.03;3609196;39;20424;-69
2023/05/06 07:27:05;;;;;;;13.13;7.60;;;;;;;17.32;71.77;101439.53;3609145;39;20404;-69
2023/05/06 07:29:30;;;;;;;13.50;7.97;;;;;;;17.39;72.06;101440.75;3609986;39;20070;-69
2023/05/06 07:31:56;;;;;;;13.60;8.55;;;;;;;17.50;72.50;101441.75;3608098;39;20058;-69
2023/05/06 07:34:22;;;;;;;13.52;8.82;;;;;;;17.59;70.04;101436.41;3610133;39;20062;-69
2023/05/06 07:36:50;;;;;;;11.20;7.53;;;;;;;17.74;69.82;101445.19;3610586;39;20055;-69
2023/05/06 07:39:16;;;;;;;12.73;7.10;;;;;;;17.83;70.10;101443.59;3611954;39;20047;-68
2023/05/06 07:41:42;;;;;;;12.35;7.20;;;;;;;17.90;69.92;101438.53;3609079;39;20325;-69
2023/05/06 07:44:07;;;;;;;9.90;6.70;;;;;;;18.02;69.54;101445.66;3605891;39;20135;-69
2023/05/06 07:46:33;;;;;;;37.97;27.05;;;;;;;18.05;69.58;101418.19;3609492;39;20217;-68
2023/05/06 07:48:59;;;;;;;11.30;8.07;;;;;;;18.30;69.64;101436.91;3609449;39;20301;-69
2023/05/06 07:51:25;;;;;;;14.40;8.68;;;;;;;18.44;66.59;101443.88;3606609;39;20058;-68
2023/05/06 07:53:51;;;;;;;13.82;8.77;;;;;;;18.52;66.58;101435.03;3607607;39;20410;-68
2023/05/06 07:56:17;;;;;;;14.50;9.18;;;;;;;18.60;65.71;101448.03;3606386;39;20050;-68
2023/05/06 07:58:43;;;;;;;17.25;10.48;;;;;;;18.64;65.78;101447.63;3608453;39;20409;-68
2023/05/06 08:01:08;;;;;;;16.35;11.35;;;;;;;18.69;62.92;101453.53;3609304;39;20062;-69
2023/05/06 08:03:34;;;;;;;16.90;11.05;;;;;;;18.86;65.16;101446.66;3609116;39;20042;-69
2023/05/06 08:06:00;;;;;;;16.45;9.85;;;;;;;19.05;65.56;101448.63;3599974;39;20906;-69
2023/05/06 08:08:26;;;;;;;16.17;10.38;;;;;;;19.09;65.45;101421.97;3607063;39;20071;-69
2023/05/06 08:10:57;;;;;;;16.75;10.70;;;;;;;19.27;63.44;101446.75;3609762;39;20051;-69
2023/05/06 08:13:24;;;;;;;18.90;12.50;;;;;;;19.38;61.54;101452.13;3610650;39;20065;-69
2023/05/06 08:15:50;;;;;;;15.80;10.38;;;;;;;19.41;60.47;101454.53;3611501;39;20050;-69
2023/05/06 08:18:15;;;;;;;15.95;10.13;;;;;;;19.43;60.89;101461.59;3610818;39;20055;-69
2023/05/06 08:20:41;;;;;;;15.60;9.60;;;;;;;19.60;61.12;101454.66;3611613;39;20132;-69
2023/05/06 08:23:07;;;;;;;16.48;10.13;;;;;;;19.70;61.61;101455.56;3610466;39;20408;-69
2023/05/06 08:25:32;;;;;;;15.43;9.13;;;;;;;19.87;60.06;101447.72;3609756;39;20061;-69
2023/05/06 08:27:58;;;;;;;15.13;9.35;;;;;;;20.07;60.15;101448.59;3610657;39;20054;-69
2023/05/06 08:30:23;;;;;;;15.02;8.27;;;;;;;20.10;60.18;101446.44;3609725;39;20051;-69
2023/05/06 08:32:49;;;;;;;13.38;8.13;;;;;;;20.25;60.65;101446.03;3611443;39;20062;-69
2023/05/06 08:35:15;;;;;;;13.70;7.95;;;;;;;20.36;60.99;101441.31;3610575;39;20048;-68
2023/05/06 08:37:40;;;;;;;12.48;6.35;;;;;;;20.55;59.16;101443.22;3602960;39;20058;-69
2023/05/06 08:40:31;;;;;;;12.00;6.30;;;;;;;20.63;58.58;101437.00;3608526;39;20055;-69
2023/05/06 08:43:01;;;;;;;8.85;6.13;;;;;;;20.65;57.26;101440.47;3607513;39;20050;-69
2023/05/06 08:45:28;;;;;;;9.93;5.68;;;;;;;20.86;57.75;101443.00;3610811;39;20083;-69
2023/05/06 08:47:53;;;;;;;8.27;4.82;;;;;;;20.91;55.11;101434.38;3611125;39;20050;-69
2023/05/06 08:50:19;;;;;;;6.43;4.38;;;;;;;21.06;53.30;101439.25;3608860;39;20578;-69
2023/05/06 08:52:46;;;;;;;6.80;4.93;;;;;;;21.12;53.37;101440.50;3596463;39;20123;-69
2023/05/06 08:55:13;;;;;;;8.10;5.50;;;;;;;21.26;52.92;101436.44;3609228;39;20374;-69
2023/05/06 08:57:43;;;;;;;9.88;5.38;;;;;;;21.38;55.03;101434.41;3610152;39;20055;-69
2023/05/06 09:00:10;;;;;;;8.40;5.32;;;;;;;21.51;54.77;101438.53;3609345;39;20059;-69
2023/05/06 09:02:37;;;;;;;9.70;6.03;;;;;;;21.70;54.87;101431.25;3611081;39;20047;-69
2023/05/06 09:05:03;;;;;;;8.82;5.05;;;;;;;21.90;52.99;101435.56;3609519;39;20051;-69
2023/05/06 09:07:29;;;;;;;7.72;5.00;;;;;;;22.08;50.59;101419.16;3609508;39;20056;-69
2023/05/06 09:09:55;;;;;;;6.55;4.13;;;;;;;22.23;52.00;101425.88;3607468;39;20058;-69
2023/05/06 09:12:23;;;;;;;7.05;3.45;;;;;;;21.89;49.92;101359.09;3598654;39;20970;-69
2023/05/06 09:14:50;;;;;;;5.55;2.80;;;;;;;21.88;49.44;101373.78;3610088;39;20043;-69
2023/05/06 09:17:22;;;;;;;5.72;3.50;;;;;;;22.22;49.36;101421.38;3608675;39;20055;-69
2023/05/06 09:19:56;;;;;;;5.15;4.18;;;;;;;22.48;50.22;101420.59;3601321;39;20051;-69
2023/05/06 09:22:27;;;;;;;6.70;4.10;;;;;;;22.54;49.91;101409.00;3610366;39;20063;-69
2023/05/06 09:24:55;;;;;;;6.88;4.03;;;;;;;22.77;50.23;101425.81;3609699;39;20377;-68
2023/05/06 09:27:30;;;;;;;5.00;2.92;;;;;;;23.06;49.33;101424.66;3608309;39;20055;-68
2023/05/06 09:30:04;;;;;;;3.08;2.78;;;;;;;23.21;47.30;101422.16;3610346;39;20050;-68
2023/05/06 09:32:30;;;;;;;3.50;2.50;;;;;;;23.32;47.32;101425.50;3608382;39;20297;-68
2023/05/06 09:34:57;;;;;;;4.32;3.17;;;;;;;23.22;46.09;101416.53;3610621;39;20393;-68
2023/05/06 09:37:27;;;;;;;5.35;2.20;;;;;;;23.35;46.74;101425.16;3607792;39;20067;-68
2023/05/06 09:39:55;;;;;;;3.90;2.75;;;;;;;23.62;45.85;101421.31;3612256;39;20045;-68
2023/05/06 09:42:24;;;;;;;2.95;2.47;;;;;;;23.66;45.20;101423.75;3609621;39;20073;-68
2023/05/06 09:44:55;;;;;;;3.75;1.98;;;;;;;23.76;44.68;101416.28;3611915;39;20055;-68
2023/05/06 09:47:24;;;;;;;2.53;2.13;;;;;;;23.56;44.66;101404.66;3609643;39;20055;-68
2023/05/06 09:49:50;;;;;;;4.90;2.28;;;;;;;23.77;44.55;101410.63;3610615;39;20047;-70
2023/05/06 09:52:18;;;;;;;4.82;2.30;;;;;;;23.71;43.88;101375.59;3609945;39;20317;-70
2023/05/06 09:54:45;;;;;;;3.05;1.83;;;;;;;24.13;44.60;101415.84;3611459;39;20059;-68
2023/05/06 09:57:14;;;;;;;2.30;1.50;;;;;;;24.12;43.37;101400.41;3600676;39;20059;-68
2023/05/06 09:59:43;;;;;;;2.90;1.48;;;;;;;24.14;43.63;101408.47;3610408;39;20059;-68
2023/05/06 10:02:12;;;;;;;3.22;1.50;;;;;;;23.78;42.84;101357.41;3600984;39;20373;-68
2023/05/06 10:04:41;;;;;;;2.63;1.40;;;;;;;24.03;42.85;101406.91;3610973;39;20047;-67
2023/05/06 10:07:13;;;;;;;3.72;1.55;;;;;;;23.96;42.11;101401.22;3608815;39;20143;-68
2023/05/06 10:09:40;;;;;;;2.42;1.42;;;;;;;23.99;42.41;101397.28;3611748;39;20422;-67
2023/05/06 10:12:08;;;;;;;3.17;1.27;;;;;;;24.08;39.42;101401.78;3610855;39;20053;-68
2023/05/06 10:14:37;;;;;;;1.83;1.27;;;;;;;24.29;40.92;101406.75;3608254;39;20043;-68
2023/05/06 10:17:10;;;;;;;5.25;1.40;;;;;;;24.51;38.57;101405.25;3610792;39;20416;-68
2023/05/06 10:19:44;;;;;;;2.53;1.13;;;;;;;24.57;40.41;101395.47;3611047;39;20326;-68
2023/05/06 10:23:02;;;;;;;2.95;1.10;;;;;;;24.46;39.57;101397.53;3610256;39;20063;-68
2023/05/06 10:25:44;;;;;;;1.83;1.17;;;;;;;24.19;40.63;101390.44;3610159;39;20048;-68
2023/05/06 10:28:11;;;;;;;2.67;1.10;;;;;;;24.10;39.73;101394.19;3610494;39;20046;-68
2023/05/06 10:30:39;;;;;;;4.55;1.73;;;;;;;24.02;41.61;101394.19;3610155;39;20055;-68
2023/05/06 10:33:07;;;;;;;3.53;1.55;;;;;;;24.19;42.68;101387.69;3603413;39;20031;-68
2023/05/06 10:35:59;;;;;;;2.45;1.17;;;;;;;24.47;41.85;101370.91;3610842;39;20136;-69
2023/05/06 10:38:40;;;;;;;3.40;1.40;;;;;;;24.79;41.30;101392.00;3609693;39;20047;-69
2023/05/06 10:41:09;;;;;;;2.78;1.25;;;;;;;24.88;40.71;101362.59;3609685;39;20054;-69
2023/05/06 10:43:41;;;;;;;2.05;1.30;;;;;;;24.89;40.00;101361.56;3611172;39;20051;-68
2023/05/06 10:46:12;;;;;;;2.20;1.10;;;;;;;25.17;39.69;101384.03;3610225;39;20061;-68
2023/05/06 10:49:10;;;;;;;3.22;1.20;;;;;;;25.09;39.59;101382.16;3611089;39;20051;-68
2023/05/06 10:51:38;;;;;;;4.03;1.33;;;;;;;24.87;39.46;101371.91;3609264;39;20046;-68
2023/05/06 10:54:25;;;;;;;2.53;1.25;;;;;;;24.75;39.89;101379.66;3610844;39;20058;-68
2023/05/06 10:56:51;;;;;;;2.17;1.15;;;;;;;24.61;40.10;101377.59;3606588;39;20070;-68
2023/05/06 10:59:29;;;;;;;2.30;1.42;;;;;;;24.08;42.93;101325.72;3609364;39;20067;-69
2023/05/06 11:02:18;;;;;;;3.22;1.60;;;;;;;24.22;41.12;101372.75;3609289;39;20051;-69
2023/05/06 11:05:00;;;;;;;3.53;1.90;;;;;;;24.05;41.83;101370.00;3611188;39;20124;-69
2023/05/06 11:07:26;;;;;;;2.30;1.50;;;;;;;23.96;41.58;101372.91;3608825;39;20131;-69
2023/05/06 11:10:03;;;;;;;3.28;1.52;;;;;;;23.77;42.38;101363.09;3610789;39;20056;-69
2023/05/06 11:12:50;;;;;;;2.63;1.92;;;;;;;23.72;42.15;101368.22;3609466;39;20055;-68
2023/05/06 11:15:39;;;;;;;2.78;1.60;;;;;;;23.59;42.49;101372.25;3606704;39;20347;-68
2023/05/06 11:18:23;;;;;;;2.85;1.40;;;;;;;23.44;43.15;101362.97;3604424;39;20051;-69
2023/05/06 11:21:01;;;;;;;3.08;1.67;;;;;;;23.65;43.81;101359.75;3607912;39;20059;-69